createdAt,value
2023-10-13T00:02:00.529Z,3.38
2023-10-13T00:04:27.747Z,2.97
2023-10-13T00:09:33.871Z,4.43
2023-10-13T00:12:01.428Z,3.38
2023-10-13T00:14:35.063Z,3.25
2023-10-13T00:17:06.715Z,3.40
2023-10-13T00:19:39.297Z,4.30
2023-10-13T00:22:13.117Z,3.60
2023-10-13T00:24:44.133Z,4.65
2023-10-13T00:27:31.399Z,5.10
2023-10-13T00:30:18.723Z,4.00
2023-10-13T00:32:48.018Z,3.92
2023-10-13T00:35:30.781Z,3.80
2023-10-13T00:38:05.294Z,3.38
2023-10-13T00:40:33.118Z,3.97
2023-10-13T00:43:20.953Z,4.15
2023-10-13T00:45:56.231Z,4.63
2023-10-13T00:48:33.767Z,4.55
2023-10-13T00:51:20.109Z,4.55
2023-10-13T00:53:48.866Z,4.90
2023-10-13T00:56:28.338Z,4.82
2023-10-13T00:59:00.536Z,5.80
2023-10-13T01:01:33.906Z,5.82
2023-10-13T01:04:01.594Z,6.30
2023-10-13T01:06:28.995Z,7.03
2023-10-13T01:09:19.847Z,6.72
2023-10-13T01:11:54.194Z,7.35
2023-10-13T01:14:22.241Z,7.95
2023-10-13T01:16:53.630Z,7.97
2023-10-13T01:19:26.172Z,7.50
2023-10-13T01:22:03.182Z,8.32
2023-10-13T01:24:35.871Z,8.40
2023-10-13T01:27:18.606Z,8.70
2023-10-13T01:29:49.601Z,8.35
2023-10-13T01:32:19.322Z,9.13
2023-10-13T01:34:48.402Z,8.88
2023-10-13T01:37:17.273Z,8.95
2023-10-13T01:39:48.326Z,9.32
2023-10-13T01:42:22.999Z,9.13
2023-10-13T01:44:50.175Z,9.88
2023-10-13T01:47:17.956Z,9.93
2023-10-13T01:49:48.771Z,11.18
2023-10-13T01:52:19.428Z,10.30
2023-10-13T01:54:50.081Z,8.48
2023-10-13T01:57:25.174Z,9.25
2023-10-13T01:59:51.907Z,10.63
2023-10-13T02:02:31.423Z,10.88
2023-10-13T02:05:01.695Z,10.90
2023-10-13T02:07:31.398Z,12.45
2023-10-13T02:09:59.033Z,11.48
2023-10-13T02:12:43.506Z,11.98
2023-10-13T02:15:27.303Z,12.95
2023-10-13T02:17:56.109Z,12.25
2023-10-13T02:20:25.153Z,14.20
2023-10-13T02:22:52.023Z,13.63
2023-10-13T02:25:36.723Z,13.73
2023-10-13T02:28:03.909Z,13.85
2023-10-13T02:30:30.762Z,14.13
2023-10-13T02:32:58.492Z,13.40
2023-10-13T02:35:32.475Z,14.55
2023-10-13T02:38:06.596Z,15.32
2023-10-13T02:40:37.065Z,15.15
2023-10-13T02:43:06.020Z,14.38
2023-10-13T02:45:38.869Z,14.38
2023-10-13T02:48:18.365Z,15.35
2023-10-13T02:50:46.226Z,15.88
2023-10-13T02:53:19.551Z,15.02
2023-10-13T02:55:57.878Z,15.27
2023-10-13T02:58:24.519Z,15.20
2023-10-13T03:00:51.598Z,15.45
2023-10-13T03:05:47.139Z,15.52
2023-10-13T03:08:19.188Z,17.15
2023-10-13T03:10:49.636Z,16.08
2023-10-13T03:13:16.466Z,17.33
2023-10-13T03:15:48.572Z,15.48
2023-10-13T03:18:19.808Z,15.85
2023-10-13T03:20:51.481Z,15.55
2023-10-13T03:23:18.307Z,16.38
2023-10-13T03:25:45.030Z,16.55
2023-10-13T03:28:17.988Z,16.33
2023-10-13T03:30:44.794Z,16.67
2023-10-13T03:33:15.641Z,16.83
2023-10-13T03:35:53.763Z,16.30
2023-10-13T03:38:20.522Z,15.23
2023-10-13T03:40:57.234Z,16.75
2023-10-13T03:43:30.813Z,16.73
2023-10-13T03:46:11.771Z,15.35
2023-10-13T03:48:55.933Z,15.75
2023-10-13T03:51:22.875Z,15.68
2023-10-13T03:53:55.986Z,14.57
2023-10-13T03:56:31.068Z,14.43
2023-10-13T03:59:07.548Z,13.25
2023-10-13T04:01:44.336Z,13.68
2023-10-13T04:04:12.935Z,14.13
2023-10-13T04:06:49.221Z,12.13
2023-10-13T04:09:31.835Z,13.00
2023-10-13T04:12:05.353Z,11.90
2023-10-13T04:15:13.775Z,10.23
2023-10-13T04:17:47.200Z,10.90
2023-10-13T04:20:14.181Z,13.45
2023-10-13T04:22:50.849Z,10.73
2023-10-13T04:25:44.950Z,11.18
2023-10-13T04:28:14.618Z,11.45
2023-10-13T04:30:56.532Z,11.15
2023-10-13T04:33:37.921Z,11.20
2023-10-13T04:36:27.949Z,11.30
2023-10-13T04:38:57.647Z,11.43
2023-10-13T04:41:45.307Z,12.25
2023-10-13T04:44:33.731Z,11.90
2023-10-13T04:47:01.408Z,13.10
2023-10-13T04:49:30.398Z,12.80
2023-10-13T04:52:02.395Z,12.45
2023-10-13T04:54:48.785Z,12.93
2023-10-13T04:57:35.480Z,14.13
2023-10-13T05:00:13.372Z,14.43
2023-10-13T05:02:42.771Z,15.00
2023-10-13T05:05:13.932Z,16.02
2023-10-13T05:08:00.401Z,15.95
2023-10-13T05:10:46.294Z,17.48
2023-10-13T05:13:31.456Z,15.98
2023-10-13T05:16:17.077Z,16.52
2023-10-13T05:19:02.273Z,17.60
2023-10-13T05:21:48.376Z,18.02
2023-10-13T05:24:34.055Z,18.95
2023-10-13T05:27:19.471Z,19.52
2023-10-13T05:30:06.857Z,19.05
2023-10-13T05:32:53.694Z,18.75
2023-10-13T05:35:42.073Z,22.20
2023-10-13T05:41:24.697Z,19.77
2023-10-13T05:44:11.269Z,24.63
2023-10-13T05:46:41.063Z,24.25
2023-10-13T05:49:18.527Z,25.35
2023-10-13T05:51:59.036Z,29.08
2023-10-13T05:54:44.322Z,27.67
2023-10-13T05:57:29.315Z,29.42
2023-10-13T06:00:32.022Z,29.92
2023-10-13T06:03:17.478Z,30.15
2023-10-13T06:06:02.930Z,30.27
2023-10-13T06:08:48.071Z,34.67
2023-10-13T06:11:33.145Z,32.70
2023-10-13T06:14:18.502Z,31.83
2023-10-13T06:17:09.521Z,32.60
2023-10-13T06:19:54.894Z,32.25
2023-10-13T06:22:40.226Z,32.85
2023-10-13T06:25:26.206Z,31.73
2023-10-13T06:28:11.609Z,30.48
2023-10-13T06:30:39.390Z,32.33
2023-10-13T06:33:06.296Z,31.40
2023-10-13T06:38:01.979Z,30.67
2023-10-13T06:40:34.652Z,30.58
2023-10-13T06:43:23.009Z,32.70
2023-10-13T06:46:03.046Z,32.75
2023-10-13T06:48:34.408Z,32.55
2023-10-13T06:51:19.005Z,30.45
2023-10-13T06:53:48.364Z,31.45
2023-10-13T06:56:23.865Z,31.52
2023-10-13T06:58:50.674Z,30.42
2023-10-13T07:01:23.231Z,31.75
2023-10-13T07:04:02.354Z,29.13
2023-10-13T07:06:29.321Z,29.75
2023-10-13T07:08:56.315Z,30.65
2023-10-13T07:11:39.664Z,31.40
2023-10-13T07:14:12.708Z,30.33
2023-10-13T07:16:59.448Z,30.90
2023-10-13T07:19:30.074Z,31.52
2023-10-13T07:22:00.935Z,31.52
2023-10-13T07:24:34.765Z,32.00
2023-10-13T07:27:05.864Z,31.90
2023-10-13T07:29:36.658Z,29.20
2023-10-13T07:32:04.628Z,29.45
2023-10-13T07:34:36.233Z,29.10
2023-10-13T07:37:08.917Z,28.52
2023-10-13T07:39:36.635Z,28.02
2023-10-13T07:42:07.365Z,28.92
2023-10-13T07:44:34.828Z,26.75
2023-10-13T07:47:08.474Z,26.10
2023-10-13T07:49:40.525Z,26.58
2023-10-13T07:52:36.134Z,25.48
2023-10-13T07:55:13.523Z,24.90
2023-10-13T08:00:48.652Z,23.38
2023-10-13T08:03:18.567Z,24.13
2023-10-13T08:06:04.737Z,22.88
2023-10-13T08:08:55.571Z,25.30
2023-10-13T08:11:25.341Z,24.58
2023-10-13T08:14:04.261Z,23.52
2023-10-13T08:16:54.026Z,22.67
2023-10-13T08:19:29.106Z,23.98
2023-10-13T08:22:22.355Z,23.60
2023-10-13T08:24:50.155Z,21.80
2023-10-13T08:27:36.500Z,22.13
2023-10-13T08:30:23.646Z,19.02
2023-10-13T08:32:58.410Z,17.17
2023-10-13T08:35:35.303Z,17.70
2023-10-13T08:38:26.938Z,17.13
2023-10-13T08:41:18.150Z,16.27
2023-10-13T08:43:51.644Z,16.65
2023-10-13T08:46:32.340Z,16.27
2023-10-13T08:49:07.977Z,14.25
2023-10-13T08:51:52.123Z,14.35
2023-10-13T08:54:36.063Z,12.43
2023-10-13T08:57:21.004Z,13.00
2023-10-13T08:59:54.487Z,14.15
2023-10-13T09:02:44.741Z,12.75
2023-10-13T09:05:30.117Z,12.57
2023-10-13T09:08:03.720Z,11.50
2023-10-13T09:10:45.901Z,10.40
2023-10-13T09:13:20.240Z,10.50
2023-10-13T09:16:02.566Z,10.13
2023-10-13T09:18:59.518Z,9.82
2023-10-13T09:21:43.884Z,9.65
2023-10-13T09:24:24.169Z,9.60
2023-10-13T09:26:54.683Z,9.32
2023-10-13T09:29:22.516Z,8.88
2023-10-13T09:32:01.846Z,9.35
2023-10-13T09:34:34.873Z,9.43
2023-10-13T09:37:05.038Z,9.15
2023-10-13T09:39:42.372Z,8.75
2023-10-13T09:42:12.758Z,9.20
2023-10-13T09:44:41.683Z,9.13
2023-10-13T09:47:23.144Z,8.57
2023-10-13T09:49:52.586Z,7.97
2023-10-13T09:52:21.302Z,8.15
2023-10-13T09:55:13.792Z,8.00
2023-10-13T09:57:49.692Z,7.60
2023-10-13T10:00:30.523Z,6.85
2023-10-13T10:03:08.113Z,6.68
2023-10-13T10:08:03.202Z,7.40
2023-10-13T10:11:17.257Z,7.38
2023-10-13T10:14:10.343Z,7.97
2023-10-13T10:17:08.930Z,7.82
2023-10-13T10:22:21.907Z,8.15
2023-10-13T10:24:59.122Z,6.47
2023-10-13T10:27:32.791Z,7.13
2023-10-13T10:30:05.188Z,8.25
2023-10-13T10:32:37.064Z,7.38
2023-10-13T10:35:16.496Z,7.65
2023-10-13T10:37:53.946Z,7.53
2023-10-13T10:40:39.322Z,6.65
2023-10-13T10:43:25.507Z,7.00
2023-10-13T10:46:03.161Z,7.28
2023-10-13T10:48:35.372Z,7.07
2023-10-13T10:51:15.744Z,6.72
2023-10-13T10:53:45.947Z,6.38
2023-10-13T10:56:45.089Z,8.70
2023-10-13T10:59:21.117Z,6.65
2023-10-13T11:01:48.625Z,7.13
2023-10-13T11:04:19.880Z,7.38
2023-10-13T11:06:50.659Z,7.53
2023-10-13T11:09:27.341Z,6.95
2023-10-13T11:11:55.457Z,7.10
2023-10-13T11:14:29.225Z,6.50
2023-10-13T11:17:20.961Z,6.55
2023-10-13T11:19:47.990Z,7.25
2023-10-13T11:25:00.318Z,6.15
2023-10-13T11:27:53.824Z,7.35
2023-10-13T11:30:21.908Z,6.60
2023-10-13T11:33:11.756Z,6.63
2023-10-13T11:35:55.701Z,6.35
2023-10-13T11:38:30.567Z,7.40
2023-10-13T11:41:07.343Z,6.82
2023-10-13T11:43:54.054Z,6.68
2023-10-13T11:46:37.561Z,7.15
2023-10-13T11:49:15.242Z,7.10
2023-10-13T11:51:46.162Z,8.07
2023-10-13T11:54:19.102Z,6.72
2023-10-13T11:56:46.858Z,6.05
2023-10-13T11:59:20.449Z,6.82
2023-10-13T12:02:08.661Z,6.47
2023-10-13T12:07:23.496Z,6.75
2023-10-13T12:09:58.023Z,6.53
2023-10-13T12:12:28.617Z,6.97
2023-10-13T12:14:56.929Z,6.65
2023-10-13T12:17:40.820Z,6.80
2023-10-13T12:20:12.206Z,6.07
2023-10-13T12:22:44.007Z,6.53
2023-10-13T12:25:26.114Z,6.40
2023-10-13T12:28:00.805Z,6.18
2023-10-13T12:30:46.058Z,6.18
2023-10-13T12:33:13.004Z,7.40
2023-10-13T12:38:48.260Z,5.75
2023-10-13T12:41:36.237Z,7.43
2023-10-13T12:44:24.149Z,6.10
2023-10-13T12:47:10.997Z,6.22
2023-10-13T12:49:44.570Z,6.00
2023-10-13T12:52:27.105Z,6.05
2023-10-13T12:55:06.789Z,6.32
2023-10-13T12:57:34.252Z,5.57
2023-10-13T13:00:02.130Z,6.57
2023-10-13T13:02:29.329Z,5.75
2023-10-13T13:05:07.525Z,6.03
2023-10-13T13:07:44.591Z,5.97
2023-10-13T13:10:13.412Z,6.35
2023-10-13T13:12:40.146Z,6.65
2023-10-13T13:15:09.852Z,7.18
2023-10-13T13:17:37.925Z,6.20
2023-10-13T13:20:12.188Z,6.13
2023-10-13T13:22:39.639Z,7.38
2023-10-13T13:25:11.103Z,6.72
2023-10-13T13:27:37.916Z,6.65
2023-10-13T13:30:13.898Z,6.30
2023-10-13T13:32:42.034Z,7.07
2023-10-13T13:35:10.224Z,6.65
2023-10-13T13:37:38.534Z,6.53
2023-10-13T13:40:15.778Z,9.18
2023-10-13T13:42:44.285Z,6.15
2023-10-13T13:45:22.816Z,7.30
2023-10-13T13:47:54.720Z,6.57
2023-10-13T13:50:28.144Z,6.95
2023-10-13T13:52:57.492Z,7.43
2023-10-13T13:55:34.651Z,7.03
2023-10-13T13:58:01.444Z,7.25
2023-10-13T14:00:43.881Z,6.63
2023-10-13T14:03:13.981Z,6.47
2023-10-13T14:05:44.325Z,6.95
2023-10-13T14:08:13.281Z,6.50
2023-10-13T14:10:58.721Z,8.60
2023-10-13T14:13:45.479Z,7.70
2023-10-13T14:16:17.699Z,6.90
2023-10-13T14:18:49.101Z,7.18
2023-10-13T14:21:25.585Z,7.15
2023-10-13T14:23:55.672Z,6.80
2023-10-13T14:26:25.081Z,7.45
2023-10-13T14:29:03.468Z,7.28
2023-10-13T14:31:31.227Z,6.88
2023-10-13T14:33:58.313Z,8.20
2023-10-13T14:38:59.320Z,7.78
2023-10-13T14:41:25.999Z,7.80
2023-10-13T14:43:52.750Z,7.72
2023-10-13T14:48:53.841Z,7.35
2023-10-13T14:51:20.394Z,7.57
2023-10-13T14:53:48.292Z,7.38
2023-10-13T14:56:16.230Z,8.05
2023-10-13T14:58:44.048Z,8.52
2023-10-13T15:01:17.230Z,8.02
2023-10-13T15:03:44.534Z,6.75
2023-10-13T15:06:36.302Z,8.70
2023-10-13T15:09:04.990Z,7.38
2023-10-13T15:11:47.252Z,7.40
2023-10-13T15:14:16.361Z,8.20
2023-10-13T15:16:46.096Z,8.40
2023-10-13T15:19:13.510Z,8.35
2023-10-13T15:21:41.606Z,7.65
2023-10-13T15:24:24.063Z,7.85
2023-10-13T15:26:58.370Z,8.02
2023-10-13T15:29:31.420Z,8.77
2023-10-13T15:32:01.135Z,9.13
2023-10-13T15:34:31.985Z,8.43
2023-10-13T15:37:00.549Z,7.82
2023-10-13T15:39:30.365Z,8.27
2023-10-13T15:42:00.272Z,9.02
2023-10-13T15:44:31.158Z,8.52
2023-10-13T15:49:35.153Z,8.20
2023-10-13T15:52:02.428Z,9.23
2023-10-13T15:54:29.034Z,8.05
2023-10-13T15:56:55.989Z,8.57
2023-10-13T16:01:56.338Z,8.57
2023-10-13T16:04:23.562Z,8.75
2023-10-13T16:06:53.878Z,8.13
2023-10-13T16:09:24.511Z,7.43
2023-10-13T16:11:53.083Z,7.60
2023-10-13T16:14:20.314Z,8.63
2023-10-13T16:16:53.941Z,7.80
2023-10-13T16:19:25.454Z,7.35
2023-10-13T16:21:54.018Z,7.88
2023-10-13T16:24:22.118Z,8.15
2023-10-13T16:26:51.089Z,7.90
2023-10-13T16:29:21.399Z,8.95
2023-10-13T16:31:49.458Z,8.05
2023-10-13T16:34:18.004Z,7.55
2023-10-13T16:36:49.008Z,7.30
2023-10-13T16:39:16.927Z,6.60
2023-10-13T16:41:48.097Z,8.10
2023-10-13T16:44:14.898Z,7.25
2023-10-13T16:46:42.182Z,7.05
2023-10-13T16:49:09.518Z,6.53
2023-10-13T16:51:37.439Z,7.95
2023-10-13T16:54:06.116Z,7.75
2023-10-13T16:56:33.140Z,6.95
2023-10-13T16:59:01.602Z,6.75
2023-10-13T17:01:28.571Z,7.70
2023-10-13T17:03:55.707Z,8.38
2023-10-13T17:06:24.248Z,7.15
2023-10-13T17:08:53.924Z,7.30
2023-10-13T17:11:20.775Z,7.40
2023-10-13T17:13:49.577Z,7.15
2023-10-13T17:16:21.776Z,7.10
2023-10-13T17:18:50.349Z,7.20
2023-10-13T17:21:25.752Z,7.93
2023-10-13T17:23:57.496Z,7.65
2023-10-13T17:26:27.772Z,6.30
2023-10-13T17:28:59.549Z,7.07
2023-10-13T17:31:28.371Z,6.88
2023-10-13T17:33:59.445Z,7.43
2023-10-13T17:36:30.402Z,6.88
2023-10-13T17:38:57.858Z,6.07
2023-10-13T17:41:24.709Z,6.97
2023-10-13T17:43:51.403Z,6.70
2023-10-13T17:46:20.779Z,6.35
2023-10-13T17:48:47.523Z,6.25
2023-10-13T17:51:14.274Z,5.50
2023-10-13T17:53:41.698Z,5.63
2023-10-13T17:56:19.663Z,5.75
2023-10-13T17:58:47.053Z,4.90
2023-10-13T18:01:19.048Z,5.15
2023-10-13T18:03:53.474Z,4.93
2023-10-13T18:06:22.451Z,4.95
2023-10-13T18:08:51.108Z,5.60
2023-10-13T18:11:25.741Z,5.78
2023-10-13T18:13:53.374Z,4.80
2023-10-13T18:16:22.230Z,4.43
2023-10-13T18:18:54.991Z,4.50
2023-10-13T18:21:22.757Z,3.85
2023-10-13T18:23:51.015Z,4.47
2023-10-13T18:26:18.410Z,4.20
2023-10-13T18:28:49.482Z,4.10
2023-10-13T18:31:19.412Z,4.47
2023-10-13T18:33:50.940Z,3.97
2023-10-13T18:36:25.904Z,3.92
2023-10-13T18:38:53.142Z,4.10
2023-10-13T18:41:23.748Z,3.97
2023-10-13T18:43:51.620Z,3.55
2023-10-13T18:46:30.314Z,3.97
2023-10-13T18:49:00.269Z,3.97
2023-10-13T18:51:27.221Z,4.13
2023-10-13T18:56:25.055Z,5.32
2023-10-13T18:58:56.826Z,5.40
2023-10-13T19:01:26.558Z,5.05
2023-10-13T19:03:54.632Z,5.72
2023-10-13T19:06:23.000Z,4.85
2023-10-13T19:08:53.156Z,5.30
2023-10-13T19:11:21.292Z,4.93
2023-10-13T19:13:50.956Z,5.32
2023-10-13T19:16:20.579Z,5.70
2023-10-13T19:18:47.946Z,5.22
2023-10-13T19:21:19.234Z,5.57
2023-10-13T19:23:52.779Z,6.32
2023-10-13T19:26:29.647Z,4.95
2023-10-13T19:28:59.129Z,5.43
2023-10-13T19:31:30.773Z,5.15
2023-10-13T19:34:08.162Z,5.85
2023-10-13T19:36:35.142Z,5.55
2023-10-13T19:39:07.457Z,5.20
2023-10-13T19:41:35.347Z,5.55
2023-10-13T19:44:03.852Z,6.13
2023-10-13T19:46:32.357Z,5.72
2023-10-13T19:49:00.237Z,6.90
2023-10-13T19:51:31.630Z,6.00
2023-10-13T19:53:59.568Z,6.55
2023-10-13T19:56:26.168Z,7.32
2023-10-13T19:58:53.057Z,6.78
2023-10-13T20:01:22.781Z,6.93
2023-10-13T20:03:57.248Z,7.70
2023-10-13T20:06:25.695Z,7.43
2023-10-13T20:08:54.354Z,8.15
2023-10-13T20:11:26.298Z,8.18
2023-10-13T20:13:58.086Z,7.75
2023-10-13T20:16:26.298Z,7.07
2023-10-13T20:18:58.602Z,7.30
2023-10-13T20:21:28.165Z,7.35
2023-10-13T20:24:01.196Z,7.05
2023-10-13T20:26:29.221Z,7.20
2023-10-13T20:28:58.702Z,7.50
2023-10-13T20:31:25.747Z,6.82
2023-10-13T20:33:56.137Z,7.57
2023-10-13T20:36:26.102Z,7.97
2023-10-13T20:38:52.996Z,7.13
2023-10-13T20:41:20.914Z,6.40
2023-10-13T20:43:52.836Z,6.40
2023-10-13T20:46:22.884Z,6.20
2023-10-13T20:48:49.743Z,6.53
2023-10-13T20:51:16.555Z,6.00
2023-10-13T20:53:48.497Z,6.30
2023-10-13T20:56:18.186Z,5.80
2023-10-13T20:58:48.192Z,5.82
2023-10-13T21:01:15.179Z,6.13
2023-10-13T21:06:11.209Z,5.35
2023-10-13T21:08:46.847Z,6.22
2023-10-13T21:11:18.201Z,6.05
2023-10-13T21:13:45.696Z,6.07
2023-10-13T21:16:13.138Z,5.95
2023-10-13T21:18:44.777Z,6.47
2023-10-13T21:21:24.530Z,5.30
2023-10-13T21:23:52.484Z,6.05
2023-10-13T21:26:20.143Z,5.78
2023-10-13T21:28:47.772Z,5.85
2023-10-13T21:31:17.705Z,5.50
2023-10-13T21:33:45.606Z,5.57
2023-10-13T21:36:15.257Z,5.18
2023-10-13T21:38:50.219Z,6.15
2023-10-13T21:41:23.455Z,5.20
2023-10-13T21:43:55.285Z,5.47
2023-10-13T21:46:24.825Z,4.93
2023-10-13T21:48:55.449Z,5.78
2023-10-13T21:51:26.193Z,4.60
2023-10-13T21:53:53.585Z,5.28
2023-10-13T21:56:22.632Z,5.00
2023-10-13T21:58:49.354Z,5.38
2023-10-13T22:01:23.365Z,4.15
2023-10-13T22:03:55.821Z,4.40
2023-10-13T22:06:22.751Z,4.38
2023-10-13T22:08:53.385Z,4.70
2023-10-13T22:11:23.424Z,5.03
2023-10-13T22:13:50.308Z,3.88
2023-10-13T22:16:19.033Z,5.07
2023-10-13T22:18:49.812Z,4.78
2023-10-13T22:21:20.123Z,5.13
2023-10-13T22:23:47.358Z,5.65
2023-10-13T22:26:17.588Z,4.50
2023-10-13T22:28:48.907Z,5.53
2023-10-13T22:31:19.262Z,5.40
2023-10-13T22:33:46.335Z,6.32
2023-10-13T22:36:13.517Z,6.05
2023-10-13T22:41:12.981Z,6.28
2023-10-13T22:43:42.697Z,7.25
2023-10-13T22:46:09.637Z,7.55
2023-10-13T22:48:36.496Z,7.63
2023-10-13T22:51:06.846Z,7.78
2023-10-13T22:53:35.282Z,7.45
2023-10-13T22:56:02.033Z,7.28
2023-10-13T22:58:29.072Z,7.55
2023-10-13T23:03:23.553Z,8.40
2023-10-13T23:05:53.320Z,7.60
2023-10-13T23:08:35.634Z,7.85
2023-10-13T23:11:17.211Z,9.70
2023-10-13T23:13:53.564Z,9.32
2023-10-13T23:16:25.896Z,8.93
2023-10-13T23:18:55.882Z,8.93
2023-10-13T23:21:23.369Z,10.85
2023-10-13T23:23:50.482Z,10.55
2023-10-13T23:26:21.022Z,9.20
2023-10-13T23:28:52.529Z,8.95
2023-10-13T23:31:20.590Z,8.20
2023-10-13T23:33:48.462Z,8.75
2023-10-13T23:36:16.703Z,9.68
2023-10-13T23:38:53.342Z,9.18
2023-10-13T23:41:20.418Z,9.38
2023-10-13T23:43:49.231Z,8.57
2023-10-13T23:46:17.060Z,9.75
2023-10-13T23:48:46.548Z,8.70
2023-10-13T23:51:21.415Z,8.48
2023-10-13T23:53:49.681Z,8.23
2023-10-13T23:56:19.398Z,6.47
2023-10-13T23:59:01.501Z,3.22
